createdAt,value
2023-03-11T00:00:10.259Z,34
2023-03-11T00:01:20.013Z,33
2023-03-11T00:02:27.165Z,33
2023-03-11T00:03:34.092Z,29
2023-03-11T00:04:41.296Z,25
2023-03-11T00:05:48.289Z,32
2023-03-11T00:06:55.289Z,33
2023-03-11T00:08:02.327Z,27
2023-03-11T00:09:10.076Z,29
2023-03-11T00:10:20.004Z,27
2023-03-11T00:11:32.170Z,38
2023-03-11T00:12:41.622Z,38
2023-03-11T00:13:49.514Z,32
2023-03-11T00:14:58.897Z,35
2023-03-11T00:16:05.904Z,30
2023-03-11T00:17:12.952Z,35
2023-03-11T00:18:19.891Z,25
2023-03-11T00:19:29.686Z,35
2023-03-11T00:20:36.693Z,25
2023-03-11T00:21:43.785Z,25
2023-03-11T00:22:50.798Z,27
2023-03-11T00:23:57.782Z,27
2023-03-11T00:25:04.790Z,30
2023-03-11T00:26:11.892Z,35
2023-03-11T00:27:18.825Z,25
2023-03-11T00:28:26.231Z,27
2023-03-11T00:29:33.247Z,28
2023-03-11T00:30:41.062Z,25
2023-03-11T00:31:47.920Z,29
2023-03-11T00:32:55.000Z,27
2023-03-11T00:34:03.184Z,32
2023-03-11T00:35:10.264Z,32
2023-03-11T00:36:17.320Z,40
2023-03-11T00:37:27.041Z,30
2023-03-11T00:38:36.535Z,26
2023-03-11T00:39:43.495Z,42
2023-03-11T00:40:51.428Z,34
2023-03-11T00:42:00.621Z,34
2023-03-11T00:43:07.799Z,39
2023-03-11T00:44:15.736Z,25
2023-03-11T00:45:22.785Z,43
2023-03-11T00:46:29.918Z,36
2023-03-11T00:47:39.738Z,42
2023-03-11T00:48:46.721Z,37
2023-03-11T00:49:53.771Z,26
2023-03-11T00:51:00.838Z,43
2023-03-11T00:52:07.971Z,45
2023-03-11T00:53:15.080Z,33
2023-03-11T00:54:22.149Z,33
2023-03-11T00:55:29.155Z,35
2023-03-11T00:56:36.178Z,44
2023-03-11T00:57:43.149Z,46
2023-03-11T00:58:50.171Z,29
2023-03-11T00:59:57.236Z,34
2023-03-11T01:01:07.208Z,25
2023-03-11T01:02:17.257Z,48
2023-03-11T01:03:24.268Z,33
2023-03-11T01:04:31.209Z,40
2023-03-11T01:05:38.451Z,49
2023-03-11T01:06:46.010Z,44
2023-03-11T01:07:52.470Z,46
2023-03-11T01:09:02.678Z,35
2023-03-11T01:10:09.730Z,48
2023-03-11T01:11:19.943Z,47
2023-03-11T01:12:27.757Z,36
2023-03-11T01:13:34.736Z,41
2023-03-11T01:14:41.920Z,46
2023-03-11T01:15:51.641Z,48
2023-03-11T01:16:58.705Z,41
2023-03-11T01:18:07.593Z,34
2023-03-11T01:19:15.235Z,40
2023-03-11T01:20:22.238Z,44
2023-03-11T01:21:29.355Z,32
2023-03-11T01:22:36.582Z,37
2023-03-11T01:23:43.670Z,42
2023-03-11T01:24:50.606Z,44
2023-03-11T01:25:57.665Z,46
2023-03-11T01:27:04.850Z,54
2023-03-11T01:28:14.857Z,58
2023-03-11T01:29:26.632Z,58
2023-03-11T01:30:33.692Z,59
2023-03-11T01:31:41.534Z,60
2023-03-11T01:32:48.493Z,68
2023-03-11T01:33:55.443Z,67
2023-03-11T01:35:02.477Z,73
2023-03-11T01:36:09.824Z,75
2023-03-11T01:37:16.830Z,80
2023-03-11T01:38:23.825Z,85
2023-03-11T01:39:30.847Z,87
2023-03-11T01:40:40.818Z,85
2023-03-11T01:41:47.832Z,82
2023-03-11T01:42:55.516Z,78
2023-03-11T01:44:05.215Z,86
2023-03-11T01:45:12.434Z,84
2023-03-11T01:46:29.716Z,80
2023-03-11T01:47:47.599Z,88
2023-03-11T01:48:54.609Z,85
2023-03-11T01:50:01.845Z,83
2023-03-11T01:51:09.466Z,90
2023-03-11T01:52:16.497Z,86
2023-03-11T01:53:23.525Z,100
2023-03-11T01:54:30.542Z,92
2023-03-11T01:55:38.646Z,97
2023-03-11T01:56:45.661Z,98
2023-03-11T01:57:52.638Z,89
2023-03-11T01:58:59.608Z,95
2023-03-11T02:00:06.852Z,94
2023-03-11T02:01:14.122Z,98
2023-03-11T02:02:23.929Z,101
2023-03-11T02:03:33.942Z,92
2023-03-11T02:04:41.126Z,100
2023-03-11T02:05:48.189Z,98
2023-03-11T02:06:55.197Z,101
2023-03-11T02:08:02.184Z,104
2023-03-11T02:09:09.305Z,100
2023-03-11T02:10:16.335Z,100
2023-03-11T02:11:23.446Z,113
2023-03-11T02:12:30.487Z,113
2023-03-11T02:13:37.537Z,108
2023-03-11T02:14:44.502Z,92
2023-03-11T02:15:51.571Z,96
2023-03-11T02:16:58.570Z,98
2023-03-11T02:18:06.816Z,83
2023-03-11T02:19:13.792Z,83
2023-03-11T02:20:23.571Z,88
2023-03-11T02:21:35.751Z,81
2023-03-11T02:22:42.770Z,82
2023-03-11T02:23:49.798Z,72
2023-03-11T02:25:06.878Z,70
2023-03-11T02:26:13.945Z,64
2023-03-11T02:27:20.970Z,65
2023-03-11T02:28:28.885Z,59
2023-03-11T02:29:38.170Z,50
2023-03-11T02:30:45.216Z,47
2023-03-11T02:31:52.362Z,41
2023-03-11T02:33:02.040Z,36
2023-03-11T02:34:11.720Z,40
2023-03-11T02:35:23.716Z,35
2023-03-11T02:36:30.723Z,28
2023-03-11T02:37:43.767Z,30
2023-03-11T02:38:50.814Z,27
2023-03-11T02:39:59.960Z,32
2023-03-11T02:41:15.076Z,31
2023-03-11T02:42:25.024Z,28
2023-03-11T02:43:32.060Z,30
2023-03-11T02:44:42.082Z,26
2023-03-11T02:45:49.121Z,29
2023-03-11T02:46:57.851Z,36
2023-03-11T02:48:04.731Z,30
2023-03-11T02:49:11.743Z,25
2023-03-11T02:50:18.839Z,28
2023-03-11T02:51:27.012Z,25
2023-03-11T02:52:34.963Z,25
2023-03-11T02:53:43.265Z,25
2023-03-11T02:54:51.111Z,30
2023-03-11T02:55:58.137Z,38
2023-03-11T02:57:05.183Z,33
2023-03-11T02:58:12.292Z,25
2023-03-11T02:59:19.232Z,26
2023-03-11T03:00:26.236Z,33
2023-03-11T03:01:33.316Z,29
2023-03-11T03:02:42.085Z,36
2023-03-11T03:03:49.095Z,33
2023-03-11T03:04:56.575Z,30
2023-03-11T03:06:03.668Z,30
2023-03-11T03:07:10.542Z,37
2023-03-11T03:08:17.582Z,35
2023-03-11T03:09:24.538Z,34
2023-03-11T03:10:34.203Z,33
2023-03-11T03:11:43.066Z,26
2023-03-11T03:12:50.066Z,31
2023-03-11T03:13:57.135Z,32
2023-03-11T03:15:09.377Z,26
2023-03-11T03:16:16.533Z,25
2023-03-11T03:17:23.493Z,29
2023-03-11T03:18:30.556Z,29
2023-03-11T03:19:37.723Z,39
2023-03-11T03:20:45.642Z,51
2023-03-11T03:21:52.757Z,45
2023-03-11T03:22:59.771Z,49
2023-03-11T03:24:06.797Z,45
2023-03-11T03:25:15.754Z,53
2023-03-11T03:26:22.806Z,48
2023-03-11T03:27:31.417Z,41
2023-03-11T03:28:38.395Z,57
2023-03-11T03:29:45.564Z,69
2023-03-11T03:30:53.623Z,65
2023-03-11T03:32:00.690Z,70
2023-03-11T03:33:07.703Z,77
2023-03-11T03:34:14.732Z,66
2023-03-11T03:35:22.520Z,79
2023-03-11T03:36:29.518Z,79
2023-03-11T03:37:36.574Z,78
2023-03-11T03:38:46.882Z,90
2023-03-11T03:39:56.692Z,85
2023-03-11T03:41:03.916Z,96
2023-03-11T03:42:11.071Z,96
2023-03-11T03:43:18.248Z,110
2023-03-11T03:44:25.304Z,120
2023-03-11T03:45:32.542Z,115
2023-03-11T03:46:40.627Z,120
2023-03-11T03:47:47.702Z,126
2023-03-11T03:48:54.933Z,126
2023-03-11T03:50:01.999Z,128
2023-03-11T03:51:09.174Z,115
2023-03-11T03:52:16.336Z,109
2023-03-11T03:53:23.961Z,120
2023-03-11T03:54:30.869Z,118
2023-03-11T03:55:37.790Z,111
2023-03-11T03:56:44.794Z,121
2023-03-11T03:57:51.821Z,120
2023-03-11T03:58:59.591Z,120
2023-03-11T04:00:06.742Z,123
2023-03-11T04:01:13.973Z,118
2023-03-11T04:02:21.755Z,126
2023-03-11T04:03:28.708Z,125
2023-03-11T04:04:35.635Z,121
2023-03-11T04:05:42.556Z,120
2023-03-11T04:06:49.588Z,118
2023-03-11T04:07:56.529Z,123
2023-03-11T04:09:04.186Z,125
2023-03-11T04:10:11.164Z,118
2023-03-11T04:11:18.157Z,132
2023-03-11T04:12:25.256Z,128
2023-03-11T04:13:32.319Z,124
2023-03-11T04:14:39.264Z,136
2023-03-11T04:15:46.177Z,128
2023-03-11T04:16:53.367Z,134
2023-03-11T04:18:00.284Z,132
2023-03-11T04:19:07.297Z,123
2023-03-11T04:20:15.080Z,115
2023-03-11T04:21:22.094Z,121
2023-03-11T04:22:29.117Z,127
2023-03-11T04:23:36.461Z,133
2023-03-11T04:24:44.069Z,117
2023-03-11T04:25:51.082Z,117
2023-03-11T04:26:58.059Z,112
2023-03-11T04:28:05.048Z,119
2023-03-11T04:29:12.036Z,109
2023-03-11T04:30:21.669Z,115
2023-03-11T04:31:29.562Z,109
2023-03-11T04:32:36.606Z,100
2023-03-11T04:33:43.698Z,112
2023-03-11T04:34:53.717Z,116
2023-03-11T04:36:01.646Z,121
2023-03-11T04:37:12.164Z,113
2023-03-11T04:38:19.148Z,120
2023-03-11T04:39:26.115Z,101
2023-03-11T04:40:33.133Z,111
2023-03-11T04:41:43.898Z,112
2023-03-11T04:42:53.860Z,106
2023-03-11T04:44:02.334Z,99
2023-03-11T04:45:09.345Z,96
2023-03-11T04:46:16.488Z,93
2023-03-11T04:47:23.432Z,96
2023-03-11T04:48:30.363Z,91
2023-03-11T04:49:37.277Z,92
2023-03-11T04:50:44.245Z,100
2023-03-11T04:51:51.359Z,97
2023-03-11T04:52:58.484Z,100
2023-03-11T04:54:05.573Z,95
2023-03-11T04:55:12.477Z,92
2023-03-11T04:56:19.465Z,95
2023-03-11T04:57:29.765Z,93
2023-03-11T04:58:36.689Z,100
2023-03-11T04:59:46.485Z,101
2023-03-11T05:00:53.501Z,101
2023-03-11T05:02:00.845Z,100
2023-03-11T05:03:08.768Z,92
2023-03-11T05:04:15.741Z,90
2023-03-11T05:05:22.665Z,82
2023-03-11T05:06:29.655Z,84
2023-03-11T05:07:36.683Z,84
2023-03-11T05:08:43.768Z,83
2023-03-11T05:09:50.726Z,92
2023-03-11T05:10:57.705Z,89
2023-03-11T05:12:08.061Z,93
2023-03-11T05:13:15.009Z,87
2023-03-11T05:14:24.623Z,99
2023-03-11T05:15:31.496Z,85
2023-03-11T05:16:39.259Z,90
2023-03-11T05:17:46.583Z,81
2023-03-11T05:18:56.464Z,94
2023-03-11T05:20:03.450Z,90
2023-03-11T05:21:10.630Z,84
2023-03-11T05:22:17.489Z,82
2023-03-11T05:23:24.993Z,82
2023-03-11T05:24:32.037Z,90
2023-03-11T05:25:39.081Z,80
2023-03-11T05:26:48.457Z,87
2023-03-11T05:27:53.047Z,83
2023-03-11T05:29:00.017Z,96
2023-03-11T05:30:10.784Z,94
2023-03-11T05:31:19.436Z,79
2023-03-11T05:32:26.493Z,88
2023-03-11T05:33:33.553Z,85
2023-03-11T05:34:40.565Z,97
2023-03-11T05:35:51.576Z,87
2023-03-11T05:36:58.426Z,96
2023-03-11T05:38:05.459Z,99
2023-03-11T05:39:12.420Z,99
2023-03-11T05:40:19.432Z,97
2023-03-11T05:41:26.424Z,87
2023-03-11T05:42:35.254Z,92
2023-03-11T05:43:42.193Z,94
2023-03-11T05:44:49.171Z,103
2023-03-11T05:45:56.156Z,95
2023-03-11T05:47:05.489Z,88
2023-03-11T05:48:12.392Z,87
2023-03-11T05:49:22.254Z,105
2023-03-11T05:50:31.781Z,97
2023-03-11T05:51:39.060Z,109
2023-03-11T05:52:46.107Z,96
2023-03-11T05:53:53.138Z,97
2023-03-11T05:55:00.170Z,103
2023-03-11T05:56:07.238Z,94
2023-03-11T05:57:14.656Z,107
2023-03-11T05:58:22.671Z,102
2023-03-11T05:59:35.052Z,95
2023-03-11T06:00:42.892Z,102
2023-03-11T06:01:49.931Z,112
2023-03-11T06:02:57.019Z,110
2023-03-11T06:04:07.004Z,111
2023-03-11T06:05:14.243Z,121
2023-03-11T06:06:23.813Z,112
2023-03-11T06:07:30.743Z,114
2023-03-11T06:08:37.716Z,120
2023-03-11T06:09:45.697Z,118
2023-03-11T06:10:55.346Z,116
2023-03-11T06:12:07.464Z,117
2023-03-11T06:13:15.717Z,110
2023-03-11T06:14:22.850Z,117
2023-03-11T06:15:29.816Z,109
2023-03-11T06:16:36.882Z,116
2023-03-11T06:17:43.705Z,111
2023-03-11T06:18:50.716Z,115
2023-03-11T06:19:57.837Z,113
2023-03-11T06:21:05.282Z,115
2023-03-11T06:22:16.238Z,101
2023-03-11T06:23:23.309Z,114
2023-03-11T06:24:30.589Z,119
2023-03-11T06:25:37.749Z,115
2023-03-11T06:26:44.950Z,115
2023-03-11T06:27:52.037Z,110
2023-03-11T06:28:59.163Z,117
2023-03-11T06:30:06.584Z,115
2023-03-11T06:31:17.176Z,133
2023-03-11T06:32:24.181Z,133
2023-03-11T06:33:31.511Z,124
2023-03-11T06:34:40.278Z,131
2023-03-11T06:35:47.845Z,127
2023-03-11T06:37:00.106Z,130
2023-03-11T06:38:07.029Z,133
2023-03-11T06:39:14.657Z,133
2023-03-11T06:40:21.737Z,134
2023-03-11T06:41:28.790Z,128
2023-03-11T06:42:38.745Z,124
2023-03-11T06:43:49.673Z,119
2023-03-11T06:44:58.891Z,118
2023-03-11T06:46:04.711Z,118
2023-03-11T06:47:10.156Z,118
2023-03-11T06:48:15.480Z,118
2023-03-11T06:49:20.599Z,118
2023-03-11T06:50:27.932Z,117
2023-03-11T06:51:36.139Z,121
2023-03-11T06:52:43.314Z,121
2023-03-11T06:53:53.021Z,116
2023-03-11T06:55:00.029Z,118
2023-03-11T06:56:07.569Z,115
2023-03-11T06:57:14.457Z,110
2023-03-11T06:58:21.426Z,119
2023-03-11T06:59:31.258Z,126
2023-03-11T07:00:38.536Z,119
2023-03-11T07:01:45.573Z,117
2023-03-11T07:02:52.553Z,111
2023-03-11T07:03:59.779Z,109
2023-03-11T07:05:07.629Z,126
2023-03-11T07:06:14.652Z,122
2023-03-11T07:07:21.747Z,117
2023-03-11T07:08:28.748Z,116
2023-03-11T07:09:37.043Z,114
2023-03-11T07:10:44.876Z,115
2023-03-11T07:11:52.447Z,121
2023-03-11T07:12:59.673Z,115
2023-03-11T07:14:06.644Z,116
2023-03-11T07:15:14.228Z,112
2023-03-11T07:16:21.161Z,115
2023-03-11T07:17:28.116Z,122
2023-03-11T07:18:37.808Z,117
2023-03-11T07:19:45.817Z,121
2023-03-11T07:20:53.098Z,115
2023-03-11T07:22:01.477Z,120
2023-03-11T07:23:09.092Z,120
2023-03-11T07:24:17.757Z,117
2023-03-11T07:25:27.218Z,119
2023-03-11T07:26:34.340Z,126
2023-03-11T07:27:42.349Z,126
2023-03-11T07:28:51.860Z,117
2023-03-11T07:29:59.064Z,125
2023-03-11T07:31:06.185Z,119
2023-03-11T07:32:16.493Z,119
2023-03-11T07:33:22.930Z,116
2023-03-11T07:34:30.788Z,118
2023-03-11T07:35:38.085Z,117
2023-03-11T07:36:45.033Z,121
2023-03-11T07:37:52.065Z,125
2023-03-11T07:38:59.112Z,121
2023-03-11T07:40:07.405Z,122
2023-03-11T07:41:14.631Z,119
2023-03-11T07:42:21.958Z,124
2023-03-11T07:43:28.728Z,119
2023-03-11T07:44:35.801Z,122
2023-03-11T07:45:45.918Z,112
2023-03-11T07:47:06.581Z,117
2023-03-11T07:48:24.756Z,124
2023-03-11T07:49:34.415Z,122
2023-03-11T07:50:41.576Z,118
2023-03-11T07:51:48.771Z,124
2023-03-11T07:52:56.426Z,118
2023-03-11T07:54:03.372Z,123
2023-03-11T07:55:11.328Z,124
2023-03-11T07:56:18.352Z,121
2023-03-11T07:57:26.299Z,118
2023-03-11T07:58:33.335Z,122
2023-03-11T07:59:41.587Z,127
2023-03-11T08:00:48.471Z,121
2023-03-11T08:01:56.349Z,120
2023-03-11T08:03:05.719Z,117
2023-03-11T08:04:14.566Z,121
2023-03-11T08:05:19.551Z,122
2023-03-11T08:06:26.416Z,122
2023-03-11T08:07:33.407Z,118
2023-03-11T08:08:41.491Z,115
2023-03-11T08:09:52.059Z,117
2023-03-11T08:10:58.910Z,112
2023-03-11T08:12:05.784Z,119
2023-03-11T08:13:12.919Z,113
2023-03-11T08:14:19.891Z,110
2023-03-11T08:15:27.636Z,110
2023-03-11T08:16:34.389Z,115
2023-03-11T08:17:41.261Z,115
2023-03-11T08:18:49.707Z,111
2023-03-11T08:19:56.600Z,109
2023-03-11T08:21:03.691Z,109
2023-03-11T08:22:13.397Z,115
2023-03-11T08:23:22.160Z,110
2023-03-11T08:24:32.055Z,110
2023-03-11T08:25:38.890Z,112
2023-03-11T08:26:46.931Z,116
2023-03-11T08:27:56.803Z,110
2023-03-11T08:29:03.735Z,109
2023-03-11T08:30:10.699Z,120
2023-03-11T08:31:18.028Z,116
2023-03-11T08:32:27.055Z,123
2023-03-11T08:33:33.927Z,119
2023-03-11T08:34:40.779Z,118
2023-03-11T08:35:47.689Z,113
2023-03-11T08:36:57.071Z,113
2023-03-11T08:38:06.216Z,121
2023-03-11T08:39:14.054Z,108
2023-03-11T08:40:20.839Z,121
2023-03-11T08:41:29.250Z,117
2023-03-11T08:42:37.214Z,117
2023-03-11T08:43:43.359Z,127
2023-03-11T08:44:50.392Z,114
2023-03-11T08:45:57.287Z,104
2023-03-11T08:47:05.471Z,111
2023-03-11T08:48:12.538Z,111
2023-03-11T08:49:23.154Z,115
2023-03-11T08:50:31.524Z,110
2023-03-11T08:51:38.044Z,118
2023-03-11T08:52:48.834Z,120
2023-03-11T08:53:55.749Z,113
2023-03-11T08:55:04.902Z,118
2023-03-11T08:56:12.605Z,115
2023-03-11T08:57:19.472Z,124
2023-03-11T08:58:26.663Z,121
2023-03-11T08:59:34.484Z,116
2023-03-11T09:00:43.910Z,116
2023-03-11T09:01:50.814Z,113
2023-03-11T09:02:57.756Z,121
2023-03-11T09:04:04.725Z,119
2023-03-11T09:05:11.692Z,116
2023-03-11T09:06:23.686Z,114
2023-03-11T09:07:30.650Z,116
2023-03-11T09:08:38.776Z,120
2023-03-11T09:09:45.813Z,122
2023-03-11T09:10:52.857Z,110
2023-03-11T09:12:00.323Z,115
2023-03-11T09:13:07.429Z,114
2023-03-11T09:14:14.417Z,114
2023-03-11T09:15:21.485Z,107
2023-03-11T09:16:30.515Z,108
2023-03-11T09:17:38.348Z,106
2023-03-11T09:18:45.339Z,108
2023-03-11T09:19:52.270Z,123
2023-03-11T09:20:59.250Z,120
2023-03-11T09:22:06.194Z,117
2023-03-11T09:23:13.197Z,112
2023-03-11T09:24:20.165Z,124
2023-03-11T09:25:27.047Z,118
2023-03-11T09:26:33.990Z,115
2023-03-11T09:27:40.962Z,109
2023-03-11T09:28:51.358Z,116
2023-03-11T09:29:58.452Z,134
2023-03-11T09:31:05.588Z,136
2023-03-11T09:32:12.768Z,133
2023-03-11T09:33:22.632Z,137
2023-03-11T09:34:29.632Z,151
2023-03-11T09:35:36.644Z,134
2023-03-11T09:36:43.581Z,139
2023-03-11T09:37:52.225Z,151
2023-03-11T09:38:59.327Z,139
2023-03-11T09:40:06.968Z,145
2023-03-11T09:41:23.488Z,141
2023-03-11T09:42:33.503Z,144
2023-03-11T09:43:51.175Z,142
2023-03-11T09:45:08.303Z,130
2023-03-11T09:46:20.606Z,134
2023-03-11T09:47:37.506Z,135
2023-03-11T09:48:51.585Z,140
2023-03-11T09:50:08.857Z,136
2023-03-11T09:51:23.807Z,135
2023-03-11T09:52:34.432Z,121
2023-03-11T09:53:46.820Z,127
2023-03-11T09:54:55.399Z,124
2023-03-11T09:56:02.364Z,125
2023-03-11T09:57:14.896Z,121
2023-03-11T09:58:26.880Z,118
2023-03-11T09:59:44.682Z,123
2023-03-11T10:00:51.707Z,109
2023-03-11T10:01:58.800Z,115
2023-03-11T10:03:05.792Z,114
2023-03-11T10:04:12.730Z,118
2023-03-11T10:05:25.234Z,120
2023-03-11T10:06:32.218Z,112
2023-03-11T10:07:39.363Z,116
2023-03-11T10:08:47.190Z,116
2023-03-11T10:09:54.393Z,120
2023-03-11T10:11:01.446Z,123
2023-03-11T10:12:18.689Z,115
2023-03-11T10:13:34.837Z,103
2023-03-11T10:14:49.385Z,113
2023-03-11T10:16:07.463Z,111
2023-03-11T10:17:22.700Z,114
2023-03-11T10:18:39.867Z,119
2023-03-11T10:19:50.192Z,115
2023-03-11T10:21:00.505Z,111
2023-03-11T10:22:17.382Z,115
2023-03-11T10:23:27.290Z,119
2023-03-11T10:24:44.450Z,114
2023-03-11T10:25:57.935Z,122
2023-03-11T10:27:15.073Z,125
2023-03-11T10:28:24.887Z,116
2023-03-11T10:29:37.082Z,111
2023-03-11T10:30:50.005Z,114
2023-03-11T10:32:00.051Z,116
2023-03-11T10:33:12.469Z,116
2023-03-11T10:34:29.496Z,111
2023-03-11T10:35:41.599Z,115
2023-03-11T10:36:48.498Z,108
2023-03-11T10:38:05.700Z,107
2023-03-11T10:39:23.016Z,110
2023-03-11T10:40:30.150Z,113
2023-03-11T10:41:40.211Z,109
2023-03-11T10:42:50.861Z,111
2023-03-11T10:43:57.930Z,116
2023-03-11T10:45:08.408Z,114
2023-03-11T10:46:18.502Z,113
2023-03-11T10:47:28.177Z,116
2023-03-11T10:48:35.424Z,111
2023-03-11T10:49:42.672Z,112
2023-03-11T10:50:49.800Z,112
2023-03-11T10:52:04.632Z,103
2023-03-11T10:53:12.026Z,110
2023-03-11T10:54:19.087Z,110
2023-03-11T10:55:32.861Z,104
2023-03-11T10:56:40.041Z,107
2023-03-11T10:57:47.775Z,110
2023-03-11T10:59:02.751Z,108
2023-03-11T11:00:26.074Z,115
2023-03-11T11:01:33.247Z,107
2023-03-11T11:02:43.301Z,107
2023-03-11T11:03:55.512Z,104
2023-03-11T11:05:02.468Z,102
2023-03-11T11:06:14.630Z,102
2023-03-11T11:07:31.482Z,105
2023-03-11T11:08:38.464Z,119
2023-03-11T11:09:46.174Z,104
2023-03-11T11:10:53.085Z,110
2023-03-11T11:12:06.793Z,111
2023-03-11T11:13:17.405Z,119
2023-03-11T11:14:24.294Z,107
2023-03-11T11:15:32.048Z,130
2023-03-11T11:16:41.788Z,113
2023-03-11T11:17:50.663Z,122
2023-03-11T11:18:57.698Z,102
2023-03-11T11:20:09.285Z,99
2023-03-11T11:21:22.038Z,110
2023-03-11T11:22:34.642Z,110
2023-03-11T11:23:41.663Z,111
2023-03-11T11:24:54.404Z,105
2023-03-11T11:26:02.306Z,108
2023-03-11T11:27:09.215Z,103
2023-03-11T11:28:21.189Z,102
2023-03-11T11:29:28.098Z,104
2023-03-11T11:30:35.104Z,101
2023-03-11T11:31:44.704Z,99
2023-03-11T11:32:51.727Z,112
2023-03-11T11:33:58.592Z,103
2023-03-11T11:35:05.423Z,104
2023-03-11T11:36:15.145Z,118
2023-03-11T11:37:22.041Z,116
2023-03-11T11:38:29.162Z,107
2023-03-11T11:39:36.257Z,116
2023-03-11T11:40:48.405Z,106
2023-03-11T11:41:56.974Z,115
2023-03-11T11:43:03.798Z,111
2023-03-11T11:44:11.184Z,115
2023-03-11T11:45:18.209Z,102
2023-03-11T11:46:33.419Z,102
2023-03-11T11:47:46.034Z,109
2023-03-11T11:48:53.947Z,94
2023-03-11T11:50:06.010Z,99
2023-03-11T11:51:22.057Z,100
2023-03-11T11:52:33.343Z,97
2023-03-11T11:53:45.534Z,94
2023-03-11T11:54:55.286Z,91
2023-03-11T11:56:07.388Z,92
2023-03-11T11:57:14.441Z,91
2023-03-11T11:58:21.468Z,92
2023-03-11T11:59:29.480Z,83
2023-03-11T12:00:37.428Z,81
2023-03-11T12:01:49.406Z,84
2023-03-11T12:03:04.507Z,83
2023-03-11T12:04:21.793Z,76
2023-03-11T12:05:38.948Z,80
2023-03-11T12:06:54.959Z,72
2023-03-11T12:08:12.256Z,72
2023-03-11T12:09:24.429Z,70
2023-03-11T12:10:35.055Z,73
2023-03-11T12:11:52.863Z,63
2023-03-11T12:13:04.977Z,62
2023-03-11T12:14:18.711Z,50
2023-03-11T12:15:26.131Z,50
2023-03-11T12:16:33.236Z,47
2023-03-11T12:17:49.015Z,45
2023-03-11T12:18:55.956Z,48
2023-03-11T12:20:05.754Z,43
2023-03-11T12:21:14.144Z,33
2023-03-11T12:22:29.357Z,35
2023-03-11T12:23:42.885Z,34
2023-03-11T12:24:52.869Z,37
2023-03-11T12:26:07.603Z,41
2023-03-11T12:27:17.606Z,36
2023-03-11T12:28:25.161Z,40
2023-03-11T12:29:37.696Z,37
2023-03-11T12:30:44.737Z,31
2023-03-11T12:31:54.925Z,35
2023-03-11T12:33:01.946Z,33
2023-03-11T12:34:14.946Z,29
2023-03-11T12:35:22.121Z,32
2023-03-11T12:36:34.277Z,27
2023-03-11T12:37:41.718Z,37
2023-03-11T12:38:48.807Z,34
2023-03-11T12:39:55.679Z,39
2023-03-11T12:41:02.630Z,28
2023-03-11T12:42:15.386Z,29
2023-03-11T12:43:25.176Z,31
2023-03-11T12:44:34.709Z,26
2023-03-11T12:45:41.752Z,31
2023-03-11T12:46:56.960Z,38
2023-03-11T12:48:09.835Z,42
2023-03-11T12:49:26.949Z,44
2023-03-11T12:50:37.005Z,33
2023-03-11T12:51:44.099Z,49
2023-03-11T12:53:01.131Z,47
2023-03-11T12:54:11.435Z,50
2023-03-11T12:55:23.391Z,48
2023-03-11T12:56:33.278Z,47
2023-03-11T12:57:40.586Z,56
2023-03-11T12:58:50.314Z,56
2023-03-11T13:00:08.170Z,55
2023-03-11T13:01:26.079Z,61
2023-03-11T13:02:48.593Z,54
2023-03-11T13:04:02.915Z,61
2023-03-11T13:05:17.589Z,64
2023-03-11T13:06:35.645Z,58
2023-03-11T13:07:46.437Z,54
2023-03-11T13:09:00.059Z,54
2023-03-11T13:10:08.816Z,49
2023-03-11T13:11:15.811Z,49
2023-03-11T13:12:32.863Z,53
2023-03-11T13:13:47.902Z,53
2023-03-11T13:14:54.879Z,51
2023-03-11T13:16:14.800Z,53
2023-03-11T13:17:21.668Z,57
2023-03-11T13:18:31.839Z,61
2023-03-11T13:19:38.835Z,65
2023-03-11T13:20:51.017Z,61
2023-03-11T13:21:58.059Z,61
2023-03-11T13:23:04.946Z,75
2023-03-11T13:24:21.993Z,76
2023-03-11T13:25:32.847Z,72
2023-03-11T13:26:45.812Z,81
2023-03-11T13:27:55.668Z,79
2023-03-11T13:29:08.309Z,86
2023-03-11T13:30:23.465Z,86
2023-03-11T13:31:30.409Z,83
2023-03-11T13:32:42.442Z,82
2023-03-11T13:33:59.972Z,81
2023-03-11T13:35:15.113Z,95
2023-03-11T13:36:32.559Z,79
2023-03-11T13:37:49.060Z,77
2023-03-11T13:39:04.834Z,97
2023-03-11T13:40:16.836Z,83
2023-03-11T13:41:29.712Z,75
2023-03-11T13:42:38.121Z,76
2023-03-11T13:43:50.910Z,75
2023-03-11T13:44:58.454Z,74
2023-03-11T13:46:05.622Z,72
2023-03-11T13:47:15.578Z,66
2023-03-11T13:48:22.528Z,57
2023-03-11T13:49:33.082Z,56
2023-03-11T13:50:50.324Z,62
2023-03-11T13:51:57.344Z,53
2023-03-11T13:53:08.908Z,54
2023-03-11T13:54:19.887Z,53
2023-03-11T13:55:35.034Z,60
2023-03-11T13:56:44.796Z,51
2023-03-11T13:57:56.950Z,44
2023-03-11T13:59:03.923Z,43
2023-03-11T14:00:20.848Z,40
2023-03-11T14:01:27.859Z,49
2023-03-11T14:02:34.799Z,42
2023-03-11T14:03:41.743Z,45
2023-03-11T14:04:48.563Z,39
2023-03-11T14:05:55.319Z,25
2023-03-11T14:07:02.246Z,34
2023-03-11T14:08:16.764Z,26
2023-03-11T14:09:28.653Z,33
2023-03-11T14:10:35.879Z,29
2023-03-11T14:11:42.844Z,29
2023-03-11T14:12:49.830Z,31
2023-03-11T14:14:01.663Z,33
2023-03-11T14:15:09.520Z,36
2023-03-11T14:16:20.530Z,39
2023-03-11T14:17:30.583Z,35
2023-03-11T14:18:37.611Z,34
2023-03-11T14:19:44.945Z,35
2023-03-11T14:21:02.058Z,34
2023-03-11T14:22:09.040Z,33
2023-03-11T14:23:16.027Z,38
2023-03-11T14:24:23.386Z,34
2023-03-11T14:25:30.722Z,29
2023-03-11T14:26:37.722Z,26
2023-03-11T14:27:44.743Z,43
2023-03-11T14:28:56.793Z,36
2023-03-11T14:30:10.674Z,28
2023-03-11T14:31:23.946Z,30
2023-03-11T14:32:38.411Z,30
2023-03-11T14:33:45.336Z,34
2023-03-11T14:34:58.806Z,44
2023-03-11T14:36:07.516Z,47
2023-03-11T14:37:14.765Z,46
2023-03-11T14:38:29.901Z,42
2023-03-11T14:39:36.899Z,45
2023-03-11T14:40:44.748Z,52
2023-03-11T14:41:52.860Z,47
2023-03-11T14:43:04.961Z,42
2023-03-11T14:44:11.836Z,39
2023-03-11T14:45:18.978Z,37
2023-03-11T14:46:26.526Z,51
2023-03-11T14:47:35.619Z,47
2023-03-11T14:48:45.532Z,38
2023-03-11T14:49:52.581Z,39
2023-03-11T14:51:02.603Z,42
2023-03-11T14:52:11.898Z,31
2023-03-11T14:53:29.994Z,25
2023-03-11T14:54:42.291Z,34
2023-03-11T14:55:52.686Z,43
2023-03-11T14:57:04.709Z,35
2023-03-11T14:58:14.049Z,36
2023-03-11T14:59:26.970Z,30
2023-03-11T15:00:33.953Z,32
2023-03-11T15:01:42.301Z,30
2023-03-11T15:02:49.356Z,42
2023-03-11T15:04:02.495Z,26
2023-03-11T15:05:11.103Z,25
2023-03-11T15:06:21.045Z,28
2023-03-11T15:07:34.562Z,28
2023-03-11T15:08:41.497Z,29
2023-03-11T15:09:51.408Z,33
2023-03-11T15:10:58.400Z,37
2023-03-11T15:12:05.947Z,33
2023-03-11T15:13:16.059Z,29
2023-03-11T15:14:24.082Z,36
2023-03-11T15:15:34.585Z,32
2023-03-11T15:16:42.608Z,37
2023-03-11T15:17:50.226Z,39
2023-03-11T15:18:59.268Z,38
2023-03-11T15:20:16.945Z,42
2023-03-11T15:21:27.339Z,42
2023-03-11T15:22:36.394Z,54
2023-03-11T15:23:48.963Z,48
2023-03-11T15:25:06.582Z,60
2023-03-11T15:26:20.523Z,47
2023-03-11T15:27:32.034Z,60
2023-03-11T15:28:40.076Z,52
2023-03-11T15:29:47.463Z,53
2023-03-11T15:30:56.918Z,50
2023-03-11T15:32:15.786Z,58
2023-03-11T15:33:33.205Z,42
2023-03-11T15:34:40.208Z,57
2023-03-11T15:35:47.304Z,48
2023-03-11T15:36:55.100Z,47
2023-03-11T15:38:11.106Z,47
2023-03-11T15:39:23.153Z,57
2023-03-11T15:40:45.228Z,46
2023-03-11T15:41:43.177Z,50
2023-03-11T15:42:50.989Z,54
2023-03-11T15:44:08.990Z,45
2023-03-11T15:45:24.849Z,46
2023-03-11T15:46:32.093Z,33
2023-03-11T15:47:39.245Z,44
2023-03-11T15:48:46.722Z,32
2023-03-11T15:49:57.180Z,51
2023-03-11T15:51:05.093Z,42
2023-03-11T15:52:16.922Z,41
2023-03-11T15:53:25.223Z,43
2023-03-11T15:54:32.478Z,67
2023-03-11T15:55:42.001Z,72
2023-03-11T15:56:50.894Z,72
2023-03-11T15:57:59.606Z,77
2023-03-11T15:59:07.711Z,90
2023-03-11T16:00:18.318Z,79
2023-03-11T16:01:25.997Z,80
2023-03-11T16:02:33.117Z,90
2023-03-11T16:03:40.599Z,105
2023-03-11T16:04:47.954Z,95
2023-03-11T16:05:55.168Z,106
2023-03-11T16:07:08.160Z,109